Terminal Aerodrome Forecast
Issued by NWS

Home | Current Version | Previous Version | Graphics & Text | Print | Product List | Glossary On
Versions: 1 2 3 4 5 6 7 8 9 10 11 12 13 14 15 16 17
000
FTUS43 KTOP 241700
TAFFOE
TAF
KFOE 241736Z 2418/2518 26011KT P6SM SCT150
     FM242000 25015G23KT P6SM BKN120
     FM250100 28013KT P6SM BKN050
     FM251300 30017G25KT P6SM SCT250=

USA.gov is the U.S. government's official web portal to all federal, state and local government web resources and services.